Amanda Park, Washington
Current Conditions -  °F | °C
As of 4:53 AM on Monday 24 Nov 2014 (Local Time) from KHQM Reporting Station
Clear Clear  
Wind Chill: 33°   Ceiling: Unl
Heat Index: 39°   Visibility: 7mi
Dew Point: 39°   Wind: 8mph
Humidity: 100%   Direction: 70°ENE
Pressure: 30.32"   Gusts: NA
Location:  47.46°N, 123.89°W
Report Text: KHQM 241253Z AUTO 07007KT 7SM CLR 04/04 A3032 RMK AO2 SLP272 T00390039
Loading
Personal Weather Stations






























Interactive Weather Map New forecast layout! Learn more

10-Day Weather Forecast

Advertisements
Track Severe Weather on mobile